createdAt,value
2024-04-11T00:03:25.309Z,101816.17
2024-04-11T00:07:33.409Z,101818.84
2024-04-11T00:11:41.108Z,101822.15
2024-04-11T00:15:51.802Z,101822.75
2024-04-11T00:19:59.236Z,101827.91
2024-04-11T00:24:10.013Z,101823.05
2024-04-11T00:28:17.349Z,101821.48
2024-04-11T00:32:26.284Z,101818.36
2024-04-11T00:36:34.236Z,101812.46
2024-04-11T00:40:41.903Z,101814.69
2024-04-11T00:44:49.408Z,101812.27
2024-04-11T00:48:57.715Z,101814.02
2024-04-11T00:53:06.102Z,101807.86
2024-04-11T00:57:16.837Z,101805.20
2024-04-11T01:01:26.731Z,101800.42
2024-04-11T01:05:35.922Z,101798.39
2024-04-11T01:09:46.530Z,101794.81
2024-04-11T01:13:54.607Z,101797.44
2024-04-11T01:18:03.841Z,101803.28
2024-04-11T01:22:12.504Z,101802.52
2024-04-11T01:26:20.136Z,101802.00
2024-04-11T01:30:29.388Z,101808.36
2024-04-11T01:34:36.901Z,101810.37
2024-04-11T01:38:46.626Z,101816.82
2024-04-11T01:42:55.392Z,101816.75
2024-04-11T01:47:02.980Z,101812.13
2024-04-11T01:51:11.486Z,101813.77
2024-04-11T01:55:19.072Z,101817.83
2024-04-11T01:59:27.430Z,101816.76
2024-04-11T02:03:35.557Z,101812.17
2024-04-11T02:07:44.021Z,101811.82
2024-04-11T02:11:55.118Z,101818.09
2024-04-11T02:16:06.622Z,101825.55
2024-04-11T02:20:14.496Z,101827.72
2024-04-11T02:24:23.667Z,101825.30
2024-04-11T02:28:31.131Z,101828.86
2024-04-11T02:32:42.868Z,101830.50
2024-04-11T02:36:50.405Z,101829.27
2024-04-11T02:40:59.284Z,101824.39
2024-04-11T02:45:16.233Z,101821.85
2024-04-11T02:49:24.500Z,101820.19
2024-04-11T02:53:33.688Z,101825.01
2024-04-11T02:57:40.919Z,101830.52
2024-04-11T03:01:52.420Z,101832.80
2024-04-11T03:06:08.669Z,101824.84
2024-04-11T03:10:16.803Z,101828.16
2024-04-11T03:14:24.652Z,101838.70
2024-04-11T03:18:36.093Z,101841.20
2024-04-11T03:22:47.963Z,101843.20
2024-04-11T03:26:55.662Z,101849.64
2024-04-11T03:31:06.128Z,101847.19
2024-04-11T03:35:13.440Z,101843.32
2024-04-11T03:39:21.449Z,101843.65
2024-04-11T03:43:29.560Z,101842.25
2024-04-11T03:47:40.274Z,101837.89
2024-04-11T03:51:51.350Z,101842.67
2024-04-11T03:55:59.478Z,101845.73
2024-04-11T04:00:08.969Z,101850.36
2024-04-11T04:04:19.152Z,101855.17
2024-04-11T04:08:26.536Z,101859.42
2024-04-11T04:12:34.545Z,101862.77
2024-04-11T04:16:43.293Z,101867.00
2024-04-11T04:20:59.411Z,101873.35
2024-04-11T04:25:12.951Z,101877.59
2024-04-11T04:29:20.613Z,101880.98
2024-04-11T04:33:28.936Z,101875.92
2024-04-11T04:37:36.794Z,101881.73
2024-04-11T04:41:44.933Z,101886.62
2024-04-11T04:45:53.827Z,101882.53
2024-04-11T04:50:01.727Z,101893.44
2024-04-11T04:54:13.289Z,101893.77
2024-04-11T04:58:21.999Z,101896.90
2024-04-11T05:02:30.190Z,101893.91
2024-04-11T05:06:38.898Z,101901.98
2024-04-11T05:10:55.575Z,101901.75
2024-04-11T05:15:13.607Z,101906.21
2024-04-11T05:19:22.018Z,101906.63
2024-04-11T05:23:34.196Z,101907.38
2024-04-11T05:27:42.648Z,101906.55
2024-04-11T05:31:50.416Z,101906.60
2024-04-11T05:35:59.958Z,101909.27
2024-04-11T05:40:09.106Z,101912.56
2024-04-11T05:44:17.198Z,101916.48
2024-04-11T05:48:25.343Z,101915.61
2024-04-11T05:52:32.996Z,101921.66
2024-04-11T05:56:40.313Z,101931.17
2024-04-11T06:00:50.928Z,101935.85
2024-04-11T06:04:58.016Z,101931.77
2024-04-11T06:09:09.594Z,101931.30
2024-04-11T06:13:20.514Z,101931.67
2024-04-11T06:17:28.837Z,101934.83
2024-04-11T06:21:46.447Z,101936.30
2024-04-11T06:25:53.904Z,101941.64
2024-04-11T06:30:04.208Z,101942.17
2024-04-11T06:34:12.934Z,101948.61
2024-04-11T06:38:22.259Z,101943.48
2024-04-11T06:42:30.914Z,101936.48
2024-04-11T06:46:41.372Z,101935.76
2024-04-11T06:50:49.354Z,101935.34
2024-04-11T06:54:57.388Z,101942.77
2024-04-11T06:59:07.059Z,101933.48
2024-04-11T07:03:18.224Z,101929.85
2024-04-11T07:07:28.405Z,101931.55
2024-04-11T07:11:41.425Z,101930.21
2024-04-11T07:15:51.285Z,101933.33
2024-04-11T07:19:59.672Z,101931.95
2024-04-11T07:24:09.258Z,101928.32
2024-04-11T07:28:17.327Z,101930.16
2024-04-11T07:32:25.705Z,101923.86
2024-04-11T07:36:34.293Z,101926.56
2024-04-11T07:40:55.749Z,101923.65
2024-04-11T07:45:07.479Z,101920.77
2024-04-11T07:49:15.586Z,101923.59
2024-04-11T07:53:27.578Z,101924.48
2024-04-11T07:57:34.952Z,101922.16
2024-04-11T08:01:42.904Z,101918.39
2024-04-11T08:05:50.871Z,101925.03
2024-04-11T08:09:59.936Z,101922.91
2024-04-11T08:14:08.295Z,101921.11
2024-04-11T08:18:16.730Z,101922.25
2024-04-11T08:22:26.142Z,101915.90
2024-04-11T08:26:34.821Z,101910.75
2024-04-11T08:30:42.432Z,101912.31
2024-04-11T08:34:50.550Z,101910.02
2024-04-11T08:38:59.832Z,101909.11
2024-04-11T08:43:11.745Z,101910.45
2024-04-11T08:47:19.392Z,101912.94
2024-04-11T08:51:27.090Z,101916.02
2024-04-11T08:55:36.673Z,101915.23
2024-04-11T08:59:47.438Z,101913.17
2024-04-11T09:03:55.312Z,101908.27
2024-04-11T09:08:02.707Z,101907.02
2024-04-11T09:12:16.225Z,101908.95
2024-04-11T09:16:29.050Z,101909.83
2024-04-11T09:20:37.300Z,101912.05
2024-04-11T09:24:46.621Z,101906.92
2024-04-11T09:28:55.245Z,101905.77
2024-04-11T09:33:08.500Z,101908.41
2024-04-11T09:37:18.637Z,101904.39
2024-04-11T09:41:27.707Z,101904.33
2024-04-11T09:45:38.285Z,101901.27
2024-04-11T09:49:55.465Z,101901.71
2024-04-11T09:54:05.763Z,101898.32
2024-04-11T09:58:15.104Z,101897.18
2024-04-11T10:02:26.426Z,101892.45
2024-04-11T10:06:36.940Z,101890.87
2024-04-11T10:10:44.329Z,101886.56
2024-04-11T10:15:00.873Z,101889.87
2024-04-11T10:19:14.261Z,101883.33
2024-04-11T10:23:31.361Z,101888.11
2024-04-11T10:27:39.477Z,101883.96
2024-04-11T10:31:49.040Z,101884.05
2024-04-11T10:35:58.326Z,101877.99
2024-04-11T10:40:11.702Z,101875.06
2024-04-11T10:44:19.172Z,101874.98
2024-04-11T10:48:27.136Z,101868.88
2024-04-11T10:52:35.241Z,101863.19
2024-04-11T10:56:45.298Z,101865.00
2024-04-11T11:01:13.476Z,101860.96
2024-04-11T11:05:21.361Z,101856.32
2024-04-11T11:09:30.604Z,101854.02
2024-04-11T11:13:38.032Z,101851.70
2024-04-11T11:17:46.745Z,101853.21
2024-04-11T11:22:00.820Z,101840.05
2024-04-11T11:26:12.978Z,101833.81
2024-04-11T11:30:20.185Z,101835.23
2024-04-11T11:34:31.587Z,101842.57
2024-04-11T11:38:39.673Z,101839.46
2024-04-11T11:42:47.843Z,101835.42
2024-04-11T11:47:07.356Z,101826.32
2024-04-11T11:51:14.672Z,101822.80
2024-04-11T11:55:28.074Z,101818.55
2024-04-11T11:59:36.226Z,101810.10
2024-04-11T12:03:45.720Z,101809.39
2024-04-11T12:07:55.627Z,101808.34
2024-04-11T12:12:23.142Z,101806.91
2024-04-11T12:16:40.887Z,101797.55
2024-04-11T12:20:48.980Z,101791.59
2024-04-11T12:24:59.640Z,101786.85
2024-04-11T12:29:07.215Z,101783.30
2024-04-11T12:33:17.888Z,101778.30
2024-04-11T12:37:26.805Z,101773.21
2024-04-11T12:41:34.239Z,101767.61
2024-04-11T12:45:41.421Z,101764.16
2024-04-11T12:49:49.874Z,101761.87
2024-04-11T12:53:57.160Z,101759.77
2024-04-11T12:58:08.134Z,101762.73
2024-04-11T13:02:20.648Z,101763.55
2024-04-11T13:06:38.502Z,101765.04
2024-04-11T13:10:50.305Z,101758.22
2024-04-11T13:15:10.117Z,101759.88
2024-04-11T13:19:20.598Z,101752.91
2024-04-11T13:23:30.693Z,101750.59
2024-04-11T13:27:40.327Z,101745.02
2024-04-11T13:31:50.716Z,101736.48
2024-04-11T13:36:05.502Z,101736.21
2024-04-11T13:40:45.906Z,101734.14
2024-04-11T13:44:55.250Z,101729.27
2024-04-11T13:49:21.651Z,101721.55
2024-04-11T13:53:33.748Z,101716.05
2024-04-11T13:57:42.483Z,101712.17
2024-04-11T14:01:52.665Z,101711.52
2024-04-11T14:06:23.945Z,101706.27
2024-04-11T14:10:34.392Z,101696.55
2024-04-11T14:14:41.599Z,101693.91
2024-04-11T14:18:50.107Z,101692.31
2024-04-11T14:23:16.784Z,101694.96
2024-04-11T14:27:30.651Z,101690.34
2024-04-11T14:31:40.485Z,101691.68
2024-04-11T14:36:07.789Z,101691.31
2024-04-11T14:40:15.702Z,101686.27
2024-04-11T14:44:23.358Z,101685.58
2024-04-11T14:48:38.068Z,101680.73
2024-04-11T14:52:46.349Z,101674.77
2024-04-11T14:56:56.659Z,101671.71
2024-04-11T15:01:16.263Z,101668.58
2024-04-11T15:05:23.654Z,101669.29
2024-04-11T15:09:35.884Z,101667.20
2024-04-11T15:13:45.691Z,101665.98
2024-04-11T15:17:59.651Z,101662.42
2024-04-11T15:22:07.797Z,101654.48
2024-04-11T15:26:18.137Z,101648.63
2024-04-11T15:30:47.153Z,101647.27
2024-04-11T15:34:55.213Z,101644.79
2024-04-11T15:39:02.579Z,101645.72
2024-04-11T15:43:23.279Z,101645.07
2024-04-11T15:47:34.996Z,101644.27
2024-04-11T15:51:48.593Z,101633.36
2024-04-11T15:55:56.211Z,101634.75
2024-04-11T16:00:12.477Z,101628.71
2024-04-11T16:04:24.956Z,101628.98
2024-04-11T16:08:36.519Z,101629.63
2024-04-11T16:12:44.622Z,101631.30
2024-04-11T16:16:56.746Z,101625.10
2024-04-11T16:21:04.645Z,101628.08
2024-04-11T16:25:20.965Z,101624.02
2024-04-11T16:29:31.520Z,101622.60
2024-04-11T16:33:43.153Z,101622.81
2024-04-11T16:38:09.131Z,101620.21
2024-04-11T16:42:24.156Z,101619.98
2024-04-11T16:46:38.648Z,101620.59
2024-04-11T16:50:50.218Z,101620.42
2024-04-11T16:55:03.183Z,101622.23
2024-04-11T16:59:10.749Z,101623.52
2024-04-11T17:03:21.722Z,101624.76
2024-04-11T17:07:37.966Z,101626.02
2024-04-11T17:11:46.986Z,101628.19
2024-04-11T17:16:16.878Z,101629.02
2024-04-11T17:20:44.056Z,101629.78
2024-04-11T17:24:53.582Z,101633.43
2024-04-11T17:29:05.203Z,101640.98
2024-04-11T17:33:21.326Z,101646.46
2024-04-11T17:37:41.046Z,101648.77
2024-04-11T17:41:59.855Z,101652.44
2024-04-11T17:46:08.565Z,101659.63
2024-04-11T17:50:15.610Z,101668.02
2024-04-11T17:54:23.628Z,101676.82
2024-04-11T17:58:32.594Z,101679.66
2024-04-11T18:02:47.811Z,101683.28
2024-04-11T18:06:55.991Z,101684.77
2024-04-11T18:11:08.678Z,101693.07
2024-04-11T18:15:19.119Z,101697.29
2024-04-11T18:19:30.262Z,101695.98
2024-04-11T18:23:38.156Z,101697.84
2024-04-11T18:27:47.476Z,101700.45
2024-04-11T18:31:54.734Z,101708.98
2024-04-11T18:36:15.850Z,101711.48
2024-04-11T18:40:38.024Z,101705.60
2024-04-11T18:44:51.943Z,101711.98
2024-04-11T18:49:18.765Z,101713.67
2024-04-11T18:53:26.898Z,101711.16
2024-04-11T18:57:36.410Z,101714.44
2024-04-11T19:01:47.757Z,101713.23
2024-04-11T19:05:59.326Z,101716.95
2024-04-11T19:10:15.630Z,101715.73
2024-04-11T19:14:26.197Z,101715.02
2024-04-11T19:18:35.876Z,101721.33
2024-04-11T19:22:47.242Z,101726.02
2024-04-11T19:26:55.090Z,101725.62
2024-04-11T19:31:03.744Z,101727.98
2024-04-11T19:35:12.026Z,101731.91
2024-04-11T19:39:20.872Z,101735.21
2024-04-11T19:43:32.305Z,101736.89
2024-04-11T19:47:44.704Z,101740.11
2024-04-11T19:51:58.579Z,101742.14
2024-04-11T19:56:19.355Z,101740.21
2024-04-11T20:00:45.534Z,101746.77
2024-04-11T20:05:01.221Z,101747.41
2024-04-11T20:09:14.415Z,101742.71
2024-04-11T20:13:35.855Z,101743.02
2024-04-11T20:17:48.273Z,101739.41
2024-04-11T20:21:56.062Z,101743.09
2024-04-11T20:26:11.973Z,101740.31
2024-04-11T20:30:21.572Z,101742.23
2024-04-11T20:34:30.401Z,101749.54
2024-04-11T20:38:38.111Z,101752.95
2024-04-11T20:43:02.994Z,101753.55
2024-04-11T20:47:28.355Z,101759.73
2024-04-11T20:51:53.953Z,101767.66
2024-04-11T20:56:19.490Z,101761.86
2024-04-11T21:00:46.268Z,101764.08
2024-04-11T21:05:11.115Z,101761.19
2024-04-11T21:09:36.358Z,101756.06
2024-04-11T21:14:01.197Z,101753.77
2024-04-11T21:18:27.424Z,101753.27
2024-04-11T21:22:53.820Z,101759.04
2024-04-11T21:27:19.145Z,101759.97
2024-04-11T21:31:44.774Z,101756.86
2024-04-11T21:35:55.222Z,101755.77
2024-04-11T21:40:14.643Z,101753.38
2024-04-11T21:44:27.760Z,101752.28
2024-04-11T21:48:41.790Z,101752.39
2024-04-11T21:52:54.321Z,101762.30
2024-04-11T21:57:06.008Z,101770.41
2024-04-11T22:01:18.469Z,101777.69
2024-04-11T22:05:28.700Z,101773.36
2024-04-11T22:09:41.561Z,101769.38
2024-04-11T22:13:54.000Z,101768.58
2024-04-11T22:18:20.724Z,101768.17
2024-04-11T22:22:30.477Z,101767.85
2024-04-11T22:26:44.104Z,101762.52
2024-04-11T22:31:07.183Z,101767.34
2024-04-11T22:35:18.808Z,101766.88
2024-04-11T22:39:37.074Z,101765.80
2024-04-11T22:43:46.235Z,101767.42
2024-04-11T22:47:54.697Z,101764.29
2024-04-11T22:52:03.549Z,101764.55
2024-04-11T22:56:22.162Z,101773.45
2024-04-11T23:00:35.391Z,101775.95
2024-04-11T23:04:47.522Z,101782.70
2024-04-11T23:09:08.277Z,101787.46
2024-04-11T23:13:20.223Z,101785.87
2024-04-11T23:17:38.136Z,101791.63
2024-04-11T23:21:59.860Z,101789.99
2024-04-11T23:26:14.528Z,101788.53
2024-04-11T23:30:29.466Z,101788.69
2024-04-11T23:34:39.522Z,101785.23
2024-04-11T23:38:49.149Z,101784.62
2024-04-11T23:42:57.172Z,101784.27
2024-04-11T23:47:05.252Z,101786.59
2024-04-11T23:51:21.802Z,101797.63
2024-04-11T23:55:31.602Z,101794.20
2024-04-11T23:59:41.139Z,101791.86
